Time;durP1;ratioP1;P1;durP2;ratioP2;P2;SDS_P1;SDS_P2;PMS_P1;PMS_P2;Temp;Humidity;BMP_temperature;BMP_pressure;BME280_temperature;BME280_humidity;BME280_pressure;Samples;Min_cycle;Max_cycle;Signal;HPM_P1;HPM_P2
2023/05/09 00:01:30;;;;;;;6.60;5.00;;;;;;;10.29;100.00;93335.03;5128838;27;20051;-75
2023/05/09 00:03:57;;;;;;;5.20;4.43;;;;;;;10.27;100.00;93326.75;5128321;27;20504;-76
2023/05/09 00:06:24;;;;;;;5.57;4.60;;;;;;;10.31;100.00;93332.28;5128642;27;20162;-75
2023/05/09 00:08:52;;;;;;;6.72;4.75;;;;;;;10.29;100.00;93337.59;5128002;27;20475;-76
2023/05/09 00:11:20;;;;;;;6.10;4.70;;;;;;;10.31;100.00;93328.94;5128601;27;20100;-76
2023/05/09 00:13:47;;;;;;;6.80;5.18;;;;;;;10.35;100.00;93328.31;5119162;27;20296;-75
2023/05/09 00:16:15;;;;;;;7.00;4.50;;;;;;;10.28;100.00;93333.47;5128459;27;20069;-76
2023/05/09 00:18:43;;;;;;;4.55;3.90;;;;;;;10.33;100.00;93326.94;5127852;27;20075;-76
2023/05/09 00:21:10;;;;;;;5.35;3.40;;;;;;;10.35;100.00;93324.94;5128195;27;20548;-76
2023/05/09 00:23:37;;;;;;;4.63;3.65;;;;;;;10.24;100.00;93306.63;5108982;27;20043;-76
2023/05/09 00:26:05;;;;;;;5.03;3.15;;;;;;;10.28;100.00;93323.19;5127924;27;20133;-76
2023/05/09 00:28:32;;;;;;;6.13;3.67;;;;;;;10.25;100.00;93310.00;5128258;27;20062;-76
2023/05/09 00:30:59;;;;;;;5.68;3.55;;;;;;;10.33;100.00;93309.75;5128539;27;20049;-76
2023/05/09 00:33:26;;;;;;;3.90;2.92;;;;;;;10.36;100.00;93323.94;5127945;27;20442;-76
2023/05/09 00:35:53;;;;;;;4.35;3.20;;;;;;;10.16;100.00;93276.06;5128543;27;20061;-76
2023/05/09 00:38:20;;;;;;;3.40;2.88;;;;;;;10.39;100.00;93308.94;5131889;27;20043;-77
2023/05/09 00:40:47;;;;;;;4.05;3.15;;;;;;;10.36;100.00;93317.03;5132401;27;20151;-76
2023/05/09 00:43:15;;;;;;;6.15;3.70;;;;;;;10.35;100.00;93309.53;5132264;27;20084;-76
2023/05/09 00:45:42;;;;;;;5.85;3.60;;;;;;;10.35;100.00;93309.53;5132447;27;20039;-76
2023/05/09 00:48:09;;;;;;;5.03;4.00;;;;;;;10.36;100.00;93305.97;5132297;27;20047;-76
2023/05/09 00:50:36;;;;;;;6.20;3.78;;;;;;;10.37;100.00;93305.78;5132590;27;20043;-76
2023/05/09 00:53:04;;;;;;;5.28;4.03;;;;;;;10.40;100.00;93309.72;5131581;27;20050;-76
2023/05/09 00:55:31;;;;;;;5.57;4.25;;;;;;;10.29;100.00;93314.50;5132538;27;20544;-76
2023/05/09 00:57:58;;;;;;;5.88;4.00;;;;;;;10.36;100.00;93316.25;5130894;27;20061;-77
2023/05/09 01:00:26;;;;;;;7.05;3.92;;;;;;;10.38;100.00;93309.91;5131648;27;20051;-76
2023/05/09 01:02:55;;;;;;;6.45;4.85;;;;;;;10.38;100.00;93309.13;5132304;27;20131;-77
2023/05/09 01:05:25;;;;;;;7.53;4.72;;;;;;;10.39;100.00;93306.38;5130631;27;20043;-77
2023/05/09 01:08:00;;;;;;;6.10;4.75;;;;;;;10.32;100.00;93312.53;5115621;27;20043;-77
2023/05/09 01:10:34;;;;;;;7.18;5.10;;;;;;;10.23;100.00;93311.97;5132075;27;20352;-77
2023/05/09 01:13:06;;;;;;;6.00;4.50;;;;;;;10.06;100.00;93288.56;5131637;27;20406;-76
2023/05/09 01:15:39;;;;;;;5.22;4.72;;;;;;;9.91;100.00;93271.66;5131859;27;20047;-77
2023/05/09 01:18:14;;;;;;;7.00;4.93;;;;;;;10.16;100.00;93309.44;5131657;27;20051;-77
2023/05/09 01:20:45;;;;;;;5.90;4.85;;;;;;;10.24;100.00;93303.28;5131737;27;20495;-76
2023/05/09 01:23:47;;;;;;;7.68;4.28;;;;;;;10.25;100.00;93303.09;5131656;27;20126;-76
2023/05/09 01:26:21;;;;;;;6.82;4.90;;;;;;;10.11;100.00;93294.66;5131604;27;20384;-76
2023/05/09 01:29:18;;;;;;;5.28;3.80;;;;;;;10.20;100.00;93308.03;5131603;27;20130;-76
2023/05/09 01:31:48;;;;;;;5.80;4.40;;;;;;;10.16;100.00;93307.66;5128082;27;20051;-76
2023/05/09 01:34:18;;;;;;;4.70;3.70;;;;;;;10.24;100.00;93303.28;5131543;27;20049;-76
2023/05/09 01:36:49;;;;;;;4.85;4.22;;;;;;;10.31;100.00;93301.47;5131099;27;20073;-77
2023/05/09 01:39:19;;;;;;;6.88;4.40;;;;;;;10.38;100.00;93297.06;5131140;27;20551;-77
2023/05/09 01:41:48;;;;;;;5.22;4.10;;;;;;;10.37;100.00;93287.81;5131214;27;20035;-77
2023/05/09 01:44:15;;;;;;;5.20;3.70;;;;;;;10.36;100.00;93296.50;5131304;27;20142;-76
2023/05/09 01:46:44;;;;;;;6.63;4.20;;;;;;;10.33;100.00;93296.13;5131237;27;20460;-77
2023/05/09 01:49:13;;;;;;;6.38;4.15;;;;;;;10.34;100.00;93300.25;5130225;27;20054;-76
2023/05/09 01:51:41;;;;;;;5.38;3.67;;;;;;;10.29;100.00;93308.59;5130923;27;20087;-76
2023/05/09 01:54:10;;;;;;;6.90;4.47;;;;;;;10.19;100.00;93290.28;5131325;27;20082;-77
2023/05/09 01:56:37;;;;;;;4.50;3.53;;;;;;;10.14;100.00;93309.63;5131053;27;20453;-76
2023/05/09 01:59:06;;;;;;;4.93;3.92;;;;;;;10.11;100.00;93306.69;5131063;27;20047;-76
2023/05/09 02:01:34;;;;;;;6.13;4.43;;;;;;;10.12;100.00;93305.69;5131350;27;20047;-76
2023/05/09 02:04:04;;;;;;;6.95;4.10;;;;;;;10.13;100.00;93309.84;5130779;27;20104;-76
2023/05/09 02:06:33;;;;;;;4.55;3.72;;;;;;;10.07;100.00;93305.50;5130804;27;20043;-76
2023/05/09 02:09:01;;;;;;;4.43;3.65;;;;;;;10.05;100.00;93302.38;5130859;27;20051;-76
2023/05/09 02:11:28;;;;;;;5.40;3.50;;;;;;;10.14;100.00;93301.16;5130778;27;20043;-76
2023/05/09 02:13:55;;;;;;;6.47;3.95;;;;;;;10.14;100.00;93307.06;5130849;27;20092;-76
2023/05/09 02:16:22;;;;;;;7.45;4.25;;;;;;;10.11;100.00;93293.84;5130410;27;20101;-76
2023/05/09 02:18:49;;;;;;;5.88;4.35;;;;;;;10.09;100.00;93296.63;5130760;27;20495;-76
2023/05/09 02:21:16;;;;;;;5.68;3.90;;;;;;;10.07;100.00;93301.19;5130361;27;20070;-76
2023/05/09 02:23:44;;;;;;;7.05;3.88;;;;;;;10.08;100.00;93307.09;5130248;27;20138;-76
2023/05/09 02:26:11;;;;;;;5.18;4.20;;;;;;;10.01;100.00;93302.78;5130724;27;20054;-76
2023/05/09 02:28:39;;;;;;;8.23;5.20;;;;;;;10.07;100.00;93300.38;5130398;27;20035;-76
2023/05/09 02:31:08;;;;;;;4.43;3.83;;;;;;;10.09;100.00;93309.47;5130601;27;20047;-76
2023/05/09 02:33:37;;;;;;;5.25;3.72;;;;;;;9.85;100.00;93275.00;5130247;27;20039;-76
2023/05/09 02:36:05;;;;;;;6.43;4.35;;;;;;;10.05;100.00;93300.59;5129935;27;20047;-75
2023/05/09 02:38:32;;;;;;;4.80;4.13;;;;;;;10.06;100.00;93301.38;5130191;27;20130;-76
2023/05/09 02:41:01;;;;;;;5.97;4.45;;;;;;;9.92;100.00;93288.63;5130139;27;20047;-76
2023/05/09 02:43:27;;;;;;;6.20;4.38;;;;;;;10.06;100.00;93306.50;5129713;27;20043;-76
2023/05/09 02:45:54;;;;;;;5.15;3.90;;;;;;;9.81;100.00;93272.06;5130230;27;20088;-76
2023/05/09 02:48:21;;;;;;;8.52;4.80;;;;;;;9.95;100.00;93300.25;5129580;27;20039;-76
2023/05/09 02:50:47;;;;;;;6.20;4.80;;;;;;;9.87;100.00;93311.53;5129808;27;20051;-76
2023/05/09 02:53:14;;;;;;;5.70;4.82;;;;;;;9.79;100.00;93306.59;5129756;27;20425;-76
2023/05/09 02:55:41;;;;;;;8.80;5.70;;;;;;;9.83;100.00;93312.91;5129641;27;20096;-76
2023/05/09 02:58:09;;;;;;;7.05;4.85;;;;;;;9.79;100.00;93314.28;5129617;27;20418;-76
2023/05/09 03:00:36;;;;;;;19.20;9.23;;;;;;;9.79;100.00;93309.16;5129511;27;20051;-76
2023/05/09 03:03:03;;;;;;;10.38;6.35;;;;;;;9.79;100.00;93314.28;5129422;27;20047;-76
2023/05/09 03:05:30;;;;;;;6.75;4.85;;;;;;;9.75;100.00;93308.78;5129698;27;20050;-76
2023/05/09 03:07:57;;;;;;;7.55;5.15;;;;;;;9.72;100.00;93306.63;5129575;27;20043;-77
2023/05/09 03:10:23;;;;;;;5.90;4.78;;;;;;;9.70;100.00;93313.72;5129430;27;20051;-76
2023/05/09 03:12:50;;;;;;;6.18;4.32;;;;;;;9.58;100.00;93303.31;5129577;27;20092;-76
2023/05/09 03:15:19;;;;;;;6.43;5.07;;;;;;;9.73;100.00;93321.81;5129414;27;20111;-76
2023/05/09 03:17:45;;;;;;;7.65;4.78;;;;;;;9.74;100.00;93323.41;5128736;27;20051;-76
2023/05/09 03:20:12;;;;;;;6.97;5.20;;;;;;;9.76;100.00;93323.97;5129582;27;20111;-76
2023/05/09 03:22:39;;;;;;;6.03;5.05;;;;;;;9.66;100.00;93331.31;5129159;27;20039;-76
2023/05/09 03:25:06;;;;;;;6.47;4.70;;;;;;;9.71;100.00;93338.38;5128921;27;20043;-76
2023/05/09 03:27:33;;;;;;;8.02;5.68;;;;;;;9.74;100.00;93335.44;5129391;27;20050;-76
2023/05/09 03:30:00;;;;;;;7.47;5.63;;;;;;;9.83;100.00;93336.00;5129489;27;20437;-76
2023/05/09 03:32:28;;;;;;;20.95;9.57;;;;;;;9.89;100.00;93338.56;5128649;27;20043;-76
2023/05/09 03:34:56;;;;;;;26.95;15.95;;;;;;;9.91;100.00;93345.25;5128929;27;20051;-77
2023/05/09 03:37:22;;;;;;;21.73;14.25;;;;;;;9.95;100.00;93339.50;5128987;27;20043;-77
2023/05/09 03:39:50;;;;;;;13.93;9.73;;;;;;;10.08;100.00;93343.03;5129150;27;20047;-77
2023/05/09 03:42:16;;;;;;;31.08;16.33;;;;;;;10.07;100.00;93346.59;5129205;27;20054;-76
2023/05/09 03:44:43;;;;;;;28.92;15.40;;;;;;;10.10;100.00;93341.06;5129548;27;20456;-77
2023/05/09 03:47:10;;;;;;;18.48;11.50;;;;;;;10.05;100.00;93335.75;5128278;27;20552;-76
2023/05/09 03:49:38;;;;;;;10.88;8.65;;;;;;;10.21;100.00;93355.81;5128568;27;20039;-76
2023/05/09 03:52:05;;;;;;;12.30;8.32;;;;;;;10.30;100.00;93356.38;5128818;27;20047;-76
2023/05/09 03:54:32;;;;;;;13.35;7.80;;;;;;;10.36;100.00;93357.31;5128566;27;20063;-76
2023/05/09 03:56:58;;;;;;;10.50;6.65;;;;;;;10.44;100.00;93362.28;5128605;27;20058;-76
2023/05/09 03:59:27;;;;;;;8.40;6.90;;;;;;;10.46;100.00;93362.06;5128214;27;20507;-77
2023/05/09 04:01:54;;;;;;;8.57;6.88;;;;;;;10.48;100.00;93352.38;5128339;27;20047;-77
2023/05/09 04:04:21;;;;;;;9.40;6.50;;;;;;;10.59;100.00;93356.09;5128502;27;20046;-77
2023/05/09 04:06:49;;;;;;;8.18;6.38;;;;;;;10.47;100.00;93343.91;5128181;27;20047;-77
2023/05/09 04:09:16;;;;;;;10.95;6.53;;;;;;;10.63;100.00;93355.47;5128898;27;20066;-77
2023/05/09 04:11:42;;;;;;;8.48;6.82;;;;;;;10.71;100.00;93354.44;5128148;27;20043;-77
2023/05/09 04:14:09;;;;;;;9.90;7.13;;;;;;;10.79;100.00;93356.75;5128376;27;20042;-76
2023/05/09 04:16:36;;;;;;;10.07;7.28;;;;;;;10.86;100.00;93361.84;5128311;27;20043;-77
2023/05/09 04:19:03;;;;;;;10.57;7.43;;;;;;;10.93;100.00;93359.25;5128232;27;20050;-76
2023/05/09 04:21:30;;;;;;;9.20;6.93;;;;;;;10.94;100.00;93351.31;5123741;27;20043;-77
2023/05/09 04:23:58;;;;;;;9.88;6.40;;;;;;;11.02;100.00;93352.06;5110430;27;20043;-77
2023/05/09 04:26:25;;;;;;;11.90;8.20;;;;;;;10.97;100.00;93342.41;5128062;27;20043;-77
2023/05/09 04:28:52;;;;;;;12.10;9.75;;;;;;;11.07;100.00;93340.16;5127984;27;20051;-76
2023/05/09 04:31:19;;;;;;;12.35;8.15;;;;;;;11.21;100.00;93358.06;5109323;28;20377;-77
2023/05/09 04:33:46;;;;;;;11.30;8.35;;;;;;;11.23;100.00;93346.59;5127844;27;20130;-76
2023/05/09 04:36:13;;;;;;;10.77;7.93;;;;;;;11.25;100.00;93346.34;5127880;27;20066;-77
2023/05/09 04:38:40;;;;;;;15.73;10.25;;;;;;;11.43;100.00;93361.03;5127960;27;20043;-77
2023/05/09 04:41:08;;;;;;;18.73;13.85;;;;;;;11.41;100.00;93346.81;5127232;27;20047;-78
2023/05/09 04:43:35;;;;;;;13.98;8.35;;;;;;;11.55;100.00;93363.72;5127915;27;20103;-77
2023/05/09 04:46:02;;;;;;;7.95;6.13;;;;;;;11.47;100.00;93349.34;5128293;27;20043;-78
2023/05/09 04:48:29;;;;;;;7.28;6.00;;;;;;;11.60;100.00;93369.03;5128325;27;20141;-77
2023/05/09 04:50:55;;;;;;;9.90;6.78;;;;;;;11.62;100.00;93369.59;5128514;27;20228;-77
2023/05/09 04:53:23;;;;;;;9.10;5.70;;;;;;;11.67;100.00;93373.31;5127888;27;20449;-77
2023/05/09 04:55:50;;;;;;;9.30;6.55;;;;;;;11.70;100.00;93372.88;5127854;28;20058;-77
2023/05/09 04:58:18;;;;;;;16.42;7.95;;;;;;;11.76;100.00;93361.78;5128186;27;20051;-77
2023/05/09 05:00:45;;;;;;;12.43;6.38;;;;;;;11.73;100.00;93355.25;5127549;27;20623;-77
2023/05/09 05:03:12;;;;;;;12.60;5.97;;;;;;;11.92;100.00;93352.69;5128162;27;20047;-77
2023/05/09 05:05:39;;;;;;;6.85;3.90;;;;;;;12.02;100.00;93362.47;5128175;27;20627;-77
2023/05/09 05:08:06;;;;;;;8.35;4.50;;;;;;;12.08;100.00;93366.03;5128029;27;20464;-77
2023/05/09 05:10:32;;;;;;;4.97;3.35;;;;;;;12.13;100.00;93361.03;5127924;27;20096;-77
2023/05/09 05:12:59;;;;;;;9.25;4.20;;;;;;;12.17;100.00;93364.72;5128095;27;20048;-77
2023/05/09 05:15:27;;;;;;;7.68;4.68;;;;;;;12.15;100.00;93364.16;5127956;27;20047;-77
2023/05/09 05:17:54;;;;;;;5.00;3.58;;;;;;;12.32;100.00;93369.53;5127921;27;20116;-77
2023/05/09 05:20:21;;;;;;;8.80;6.15;;;;;;;12.40;100.00;93374.38;5127910;27;20047;-77
2023/05/09 05:22:48;;;;;;;16.20;8.25;;;;;;;12.60;100.00;93375.13;5122927;27;20048;-77
2023/05/09 05:25:16;;;;;;;7.15;4.50;;;;;;;12.78;100.00;93377.66;5124974;27;20043;-77
2023/05/09 05:27:43;;;;;;;7.18;4.30;;;;;;;12.81;100.00;93381.59;5131153;27;20165;-77
2023/05/09 05:30:10;;;;;;;5.78;4.72;;;;;;;12.95;100.00;93359.78;5131813;27;20043;-77
2023/05/09 05:32:38;;;;;;;3.63;2.80;;;;;;;13.06;100.00;93375.53;5131618;27;20043;-77
2023/05/09 05:35:06;;;;;;;3.53;2.78;;;;;;;12.69;100.00;93379.00;5131165;27;21165;-76
2023/05/09 05:37:33;;;;;;;4.35;3.08;;;;;;;12.69;100.00;93377.19;5131338;27;20047;-77
2023/05/09 05:40:00;;;;;;;3.95;2.42;;;;;;;12.45;100.00;93371.13;5131102;27;20500;-77
2023/05/09 05:42:26;;;;;;;4.32;2.85;;;;;;;12.27;100.00;93366.81;5130927;27;20058;-77
2023/05/09 05:44:53;;;;;;;4.07;2.92;;;;;;;12.01;100.00;93373.78;5131398;27;20047;-76
2023/05/09 05:47:20;;;;;;;3.38;2.78;;;;;;;12.01;100.00;93368.63;5131015;27;20441;-77
2023/05/09 05:49:48;;;;;;;4.55;3.33;;;;;;;11.86;100.00;93367.19;5130655;27;20503;-77
2023/05/09 05:52:15;;;;;;;3.70;3.10;;;;;;;12.02;100.00;93377.94;5131064;27;20508;-77
2023/05/09 05:54:41;;;;;;;4.20;3.00;;;;;;;12.18;100.00;93375.81;5131050;27;20047;-77
2023/05/09 05:57:08;;;;;;;5.72;3.80;;;;;;;12.35;100.00;93378.63;5130277;27;20096;-77
2023/05/09 05:59:35;;;;;;;3.63;2.67;;;;;;;12.35;100.00;93369.09;5131005;27;20051;-76
2023/05/09 06:02:02;;;;;;;6.05;3.20;;;;;;;12.47;100.00;93376.09;5130521;27;20051;-77
2023/05/09 06:04:28;;;;;;;6.20;3.58;;;;;;;12.19;100.00;93352.44;5131157;27;20115;-77
2023/05/09 06:06:56;;;;;;;4.50;3.05;;;;;;;12.53;100.00;93367.47;5131117;27;20125;-77
2023/05/09 06:09:23;;;;;;;5.20;2.97;;;;;;;12.63;100.00;93372.13;5130722;27;20043;-76
2023/05/09 06:11:50;;;;;;;4.13;2.80;;;;;;;12.80;100.00;93373.09;5130652;27;20047;-76
2023/05/09 06:14:17;;;;;;;4.38;3.10;;;;;;;12.70;100.00;93367.66;5130663;27;20513;-77
2023/05/09 06:16:44;;;;;;;4.20;2.67;;;;;;;12.66;100.00;93371.69;5130635;27;20500;-77
2023/05/09 06:19:10;;;;;;;3.45;2.55;;;;;;;12.70;100.00;93371.03;5130578;27;20062;-76
2023/05/09 06:21:37;;;;;;;3.38;2.50;;;;;;;12.99;100.00;93382.53;5130776;27;20071;-77
2023/05/09 06:24:06;;;;;;;2.78;2.42;;;;;;;12.91;100.00;93378.50;5130496;27;20306;-77
2023/05/09 06:26:33;;;;;;;3.50;2.45;;;;;;;12.73;100.00;93374.94;5130091;27;20039;-76
2023/05/09 06:29:00;;;;;;;4.18;2.63;;;;;;;12.85;100.00;93377.59;5130141;27;20043;-77
2023/05/09 06:31:28;;;;;;;3.30;2.30;;;;;;;12.66;100.00;93374.25;5130186;27;20414;-78
2023/05/09 06:33:55;;;;;;;3.03;2.40;;;;;;;12.86;100.00;93381.72;5129985;27;20054;-77
2023/05/09 06:36:22;;;;;;;3.90;2.45;;;;;;;13.02;100.00;93382.91;5130414;27;20039;-76
2023/05/09 06:38:48;;;;;;;4.13;2.50;;;;;;;12.89;100.00;93367.63;5130009;27;20043;-76
2023/05/09 06:41:16;;;;;;;3.47;2.40;;;;;;;12.97;100.00;93377.63;5129848;27;20047;-76
2023/05/09 06:43:43;;;;;;;4.45;2.58;;;;;;;13.00;100.00;93373.81;5129968;27;20039;-76
2023/05/09 06:46:10;;;;;;;3.20;2.50;;;;;;;12.96;100.00;93382.00;5130250;27;20078;-76
2023/05/09 06:48:37;;;;;;;4.30;2.50;;;;;;;12.98;100.00;93376.63;5129916;27;20039;-77
2023/05/09 06:51:04;;;;;;;3.50;2.00;;;;;;;13.05;100.00;93377.31;5129830;27;20539;-77
2023/05/09 06:53:30;;;;;;;2.70;1.70;;;;;;;13.21;100.00;93375.09;5130027;27;20111;-76
2023/05/09 06:55:57;;;;;;;2.90;1.88;;;;;;;13.50;100.00;93372.69;5129783;27;20051;-76
2023/05/09 06:58:26;;;;;;;3.85;1.88;;;;;;;13.42;100.00;93360.88;5129648;27;20074;-77
2023/05/09 07:00:53;;;;;;;5.57;2.25;;;;;;;13.46;100.00;93371.53;5129701;27;20138;-76
2023/05/09 07:03:20;;;;;;;6.57;2.08;;;;;;;13.43;100.00;93361.66;5129585;27;20426;-77
2023/05/09 07:05:46;;;;;;;3.25;1.70;;;;;;;13.46;100.00;93368.94;5129757;27;20047;-77
2023/05/09 07:08:13;;;;;;;3.72;2.00;;;;;;;13.56;100.00;93365.88;5122789;27;20100;-77
2023/05/09 07:10:40;;;;;;;2.53;1.75;;;;;;;13.75;100.00;93358.78;5126194;27;20043;-77
2023/05/09 07:13:07;;;;;;;4.35;1.92;;;;;;;13.58;100.00;93374.97;5129377;27;20066;-78
2023/05/09 07:15:35;;;;;;;3.92;2.28;;;;;;;13.41;100.00;93366.25;5129384;27;20054;-77
2023/05/09 07:18:02;;;;;;;7.18;4.57;;;;;;;13.18;100.00;93376.31;5129488;27;20042;-77
2023/05/09 07:20:28;;;;;;;4.13;2.38;;;;;;;13.05;100.00;93359.25;5129727;27;20249;-77
2023/05/09 07:22:57;;;;;;;4.07;2.28;;;;;;;12.99;100.00;93361.91;5129289;27;20043;-77
2023/05/09 07:25:24;;;;;;;3.75;1.90;;;;;;;13.09;100.00;93362.97;5128784;27;20039;-77
2023/05/09 07:27:50;;;;;;;7.20;3.13;;;;;;;13.01;100.00;93354.75;5129564;27;20112;-77
2023/05/09 07:30:17;;;;;;;5.57;2.92;;;;;;;13.02;100.00;93362.28;5129009;27;20039;-77
2023/05/09 07:32:45;;;;;;;4.45;2.15;;;;;;;13.09;100.00;93357.81;5129332;27;20054;-77
2023/05/09 07:35:12;;;;;;;9.05;3.53;;;;;;;13.04;100.00;93355.09;5129800;27;20047;-77
2023/05/09 07:37:39;;;;;;;5.30;2.55;;;;;;;13.41;100.00;93366.25;5129002;27;20039;-77
2023/05/09 07:40:07;;;;;;;5.30;2.20;;;;;;;13.20;100.00;93355.47;5128374;27;20244;-77
2023/05/09 07:42:34;;;;;;;7.50;2.75;;;;;;;13.71;100.00;93358.44;5129321;27;20054;-77
2023/05/09 07:45:03;;;;;;;8.18;2.55;;;;;;;13.61;100.00;93369.34;5127972;27;20077;-77
2023/05/09 07:47:30;;;;;;;3.95;1.60;;;;;;;13.49;100.00;93374.50;5128497;27;20039;-78
2023/05/09 07:49:58;;;;;;;2.85;1.60;;;;;;;13.73;100.00;93360.81;5128948;27;20047;-77
2023/05/09 07:52:25;;;;;;;2.83;1.17;;;;;;;14.10;100.00;93357.16;5128597;27;20050;-77
2023/05/09 07:54:53;;;;;;;3.42;1.42;;;;;;;14.41;100.00;93350.03;5128168;27;20051;-77
2023/05/09 07:57:20;;;;;;;2.45;1.25;;;;;;;14.35;100.00;93353.53;5128796;27;20051;-77
2023/05/09 07:59:46;;;;;;;2.78;1.15;;;;;;;14.12;100.00;93344.81;5128001;27;20498;-77
2023/05/09 08:02:13;;;;;;;1.92;1.20;;;;;;;14.24;100.00;93348.16;5128719;27;20047;-76
2023/05/09 08:04:40;;;;;;;3.75;1.80;;;;;;;14.77;100.00;93348.09;5128251;27;20428;-76
2023/05/09 08:07:10;;;;;;;2.17;1.35;;;;;;;14.87;100.00;93342.34;5127598;27;20051;-77
2023/05/09 08:09:37;;;;;;;3.28;1.17;;;;;;;15.04;98.38;93351.94;5128597;27;20475;-76
2023/05/09 08:12:04;;;;;;;3.22;1.80;;;;;;;15.79;100.00;93358.72;5128029;27;20051;-76
2023/05/09 08:14:31;;;;;;;7.35;1.77;;;;;;;15.35;93.22;93375.69;5128296;27;20583;-77
2023/05/09 08:16:58;;;;;;;18.90;5.47;;;;;;;15.15;96.05;93361.44;5128386;27;20415;-77
2023/05/09 08:19:25;;;;;;;2.83;1.30;;;;;;;14.90;94.78;93357.38;5128289;27;20066;-77
2023/05/09 08:21:51;;;;;;;4.95;2.53;;;;;;;14.63;96.03;93352.75;5127663;27;20042;-77
2023/05/09 08:24:20;;;;;;;4.18;2.10;;;;;;;14.46;96.24;93351.91;5128268;27;20130;-76
2023/05/09 08:26:47;;;;;;;2.00;1.27;;;;;;;14.31;95.55;93353.22;5128008;27;20047;-76
2023/05/09 08:29:13;;;;;;;3.50;1.83;;;;;;;14.56;93.98;93359.88;5127957;27;20048;-77
2023/05/09 08:31:40;;;;;;;4.50;2.22;;;;;;;14.77;99.29;93348.09;5128459;27;20055;-77
2023/05/09 08:34:07;;;;;;;8.05;3.22;;;;;;;14.63;96.61;93373.44;5127905;27;20511;-77
2023/05/09 08:36:34;;;;;;;6.07;2.88;;;;;;;14.63;100.00;93334.66;5127436;27;20040;-78
2023/05/09 08:39:01;;;;;;;2.65;1.52;;;;;;;14.85;99.90;93338.44;5128376;27;20042;-77
2023/05/09 08:41:34;;;;;;;2.58;1.30;;;;;;;15.32;94.74;93345.91;5127756;27;20095;-78
2023/05/09 08:44:02;;;;;;;4.05;1.70;;;;;;;15.31;95.68;93349.50;5128251;27;20043;-77
2023/05/09 08:46:36;;;;;;;2.58;1.38;;;;;;;15.82;94.82;93346.09;5128387;27;20785;-78
2023/05/09 08:49:05;;;;;;;3.15;1.38;;;;;;;15.63;93.98;93330.81;5128261;27;20047;-77
2023/05/09 08:51:32;;;;;;;3.33;1.20;;;;;;;15.60;89.80;93356.41;5127591;27;20047;-78
2023/05/09 08:53:59;;;;;;;3.53;1.40;;;;;;;15.10;93.88;93333.66;5127810;27;20043;-78
2023/05/09 08:56:26;;;;;;;5.30;2.00;;;;;;;15.79;96.80;93338.00;5127087;27;20043;-78
2023/05/09 08:58:55;;;;;;;2.80;1.85;;;;;;;15.86;91.82;93349.78;5132104;27;20507;-78
2023/05/09 09:01:23;;;;;;;3.10;1.38;;;;;;;15.74;93.27;93333.56;5131679;27;20054;-77
2023/05/09 09:03:51;;;;;;;13.10;5.32;;;;;;;15.31;94.17;93343.53;5131601;27;20052;-78
2023/05/09 09:06:19;;;;;;;5.03;1.70;;;;;;;15.28;98.57;93341.44;5132067;27;20054;-77
2023/05/09 09:08:48;;;;;;;3.22;1.85;;;;;;;15.30;91.85;93340.19;5131263;27;20051;-78
2023/05/09 09:11:15;;;;;;;4.30;1.17;;;;;;;15.35;93.15;93337.69;5131706;27;20111;-78
2023/05/09 09:13:44;;;;;;;2.97;1.60;;;;;;;15.68;92.29;93337.06;5131463;27;20551;-77
2023/05/09 09:16:18;;;;;;;5.47;3.03;;;;;;;15.67;93.84;93325.16;5131815;27;20051;-78
2023/05/09 09:18:46;;;;;;;3.95;1.63;;;;;;;15.57;92.89;93338.75;5131877;27;20047;-78
2023/05/09 09:21:16;;;;;;;3.95;1.95;;;;;;;15.42;92.04;93342.66;5131418;27;20047;-79
2023/05/09 09:23:44;;;;;;;5.00;1.60;;;;;;;15.46;91.38;93328.25;5131640;27;20126;-77
2023/05/09 09:26:10;;;;;;;8.35;4.28;;;;;;;15.13;92.60;93332.41;5131672;27;20043;-78
2023/05/09 09:28:37;;;;;;;3.33;1.73;;;;;;;15.08;92.46;93332.31;5131227;27;20051;-77
2023/05/09 09:34:01;;;;;;;5.57;3.13;;;;;;;15.10;93.72;93331.06;5084636;27;20397;-77
2023/05/09 09:36:28;;;;;;;15.88;6.90;;;;;;;14.76;100.00;93312.94;5084168;28;20044;-77
2023/05/09 09:39:00;;;;;;;8.57;3.70;;;;;;;14.93;100.00;93309.59;5084438;28;20051;-76
2023/05/09 09:41:31;;;;;;;6.38;3.00;;;;;;;15.05;100.00;93320.63;5085166;28;20129;-77
2023/05/09 09:43:58;;;;;;;4.40;2.80;;;;;;;15.30;100.00;93331.63;5084709;28;20080;-75
2023/05/09 09:46:25;;;;;;;4.65;2.55;;;;;;;15.06;100.00;93327.41;5057799;28;20048;-76
2023/05/09 09:48:55;;;;;;;2.72;1.45;;;;;;;15.18;100.00;93329.13;5084036;28;20055;-76
2023/05/09 09:51:27;;;;;;;2.90;1.13;;;;;;;15.05;100.00;93318.06;5084510;28;20492;-76
2023/05/09 09:53:55;;;;;;;4.22;2.33;;;;;;;15.08;100.00;93322.78;5084119;28;20091;-76
2023/05/09 09:56:22;;;;;;;3.60;1.58;;;;;;;14.83;100.00;93331.66;5084264;28;20044;-77
2023/05/09 09:58:49;;;;;;;1.58;0.90;;;;;;;14.32;100.00;93333.31;5084086;28;20056;-76
2023/05/09 10:01:15;;;;;;;2.95;1.85;;;;;;;14.33;100.00;93325.34;5084489;28;20474;-76
2023/05/09 10:03:45;;;;;;;2.28;1.10;;;;;;;14.50;100.00;93324.59;5083551;28;20086;-76
2023/05/09 10:06:12;;;;;;;5.30;3.75;;;;;;;14.30;100.00;93326.56;5084321;28;20044;-77
2023/05/09 10:08:41;;;;;;;2.20;1.08;;;;;;;14.41;100.00;93319.78;5083895;28;20098;-77
2023/05/09 10:11:09;;;;;;;1.65;0.90;;;;;;;14.57;100.00;93296.81;5083755;28;20044;-76
2023/05/09 10:13:37;;;;;;;2.47;1.00;;;;;;;14.82;100.00;93319.00;5084237;28;20048;-77
2023/05/09 10:16:05;;;;;;;2.53;1.90;;;;;;;14.77;98.96;93311.13;5084164;28;20467;-76
2023/05/09 10:18:32;;;;;;;3.13;0.95;;;;;;;14.99;97.04;93323.41;5083489;28;20040;-78
2023/05/09 10:21:02;;;;;;;1.98;0.90;;;;;;;14.74;97.78;93299.44;5083409;28;20051;-76
2023/05/09 10:23:30;;;;;;;1.50;0.82;;;;;;;14.47;100.00;93304.38;5073236;28;20045;-76
2023/05/09 10:26:07;;;;;;;2.33;1.52;;;;;;;14.75;98.88;93328.66;5077927;28;20070;-76
2023/05/09 10:28:36;;;;;;;2.30;1.10;;;;;;;14.73;99.28;93321.13;5075125;28;20049;-76
2023/05/09 10:31:12;;;;;;;1.65;0.95;;;;;;;14.56;97.86;93306.38;5080168;28;20040;-75
2023/05/09 10:33:46;;;;;;;3.45;1.10;;;;;;;14.72;95.99;93340.22;5083357;28;20067;-76
2023/05/09 10:36:15;;;;;;;4.20;0.77;;;;;;;14.65;95.00;93304.19;5083304;28;20085;-77
2023/05/09 10:38:42;;;;;;;4.95;1.10;;;;;;;14.67;95.93;93324.63;5083640;28;20439;-75
2023/05/09 10:41:11;;;;;;;1.80;1.08;;;;;;;14.81;95.39;93314.81;5083247;28;20048;-78
2023/05/09 10:43:38;;;;;;;1.73;1.20;;;;;;;14.83;96.48;93318.72;5078494;28;20052;-76
2023/05/09 10:46:05;;;;;;;2.25;1.27;;;;;;;14.94;95.75;93313.72;5061521;28;20738;-77
2023/05/09 10:48:33;;;;;;;2.80;1.23;;;;;;;15.18;95.49;93314.38;5068299;28;20497;-77
2023/05/09 10:51:01;;;;;;;2.55;1.90;;;;;;;15.43;94.01;93305.44;5069586;28;20102;-77
2023/05/09 10:53:42;;;;;;;1.77;0.88;;;;;;;15.43;92.34;93305.44;5069732;28;20106;-76
2023/05/09 10:56:23;;;;;;;4.30;1.95;;;;;;;15.54;91.39;93298.59;5069440;28;20040;-76
2023/05/09 10:58:49;;;;;;;1.90;1.10;;;;;;;15.23;92.84;93293.75;5070001;28;20099;-76
2023/05/09 11:01:28;;;;;;;2.13;1.42;;;;;;;15.31;94.11;93312.47;5069377;28;20052;-77
2023/05/09 11:03:57;;;;;;;2.40;1.20;;;;;;;15.62;92.33;93311.13;5069244;28;20138;-76
2023/05/09 11:06:44;;;;;;;2.40;1.20;;;;;;;15.33;92.06;93307.88;5069487;28;20083;-76
2023/05/09 11:09:33;;;;;;;4.03;1.70;;;;;;;15.58;94.42;93298.88;5043850;28;20110;-75
2023/05/09 11:12:21;;;;;;;1.48;0.85;;;;;;;15.61;90.73;93309.53;5069054;28;20040;-76
2023/05/09 11:14:50;;;;;;;1.73;1.10;;;;;;;15.49;90.45;93311.47;5068992;28;20055;-75
2023/05/09 11:17:28;;;;;;;2.13;1.38;;;;;;;15.68;89.52;93311.97;5042700;28;20075;-76
2023/05/09 11:20:00;;;;;;;2.95;1.17;;;;;;;15.56;89.36;93314.66;5065394;28;20045;-76
2023/05/09 11:22:29;;;;;;;5.07;1.33;;;;;;;15.32;89.35;93309.66;5060488;28;20048;-76
2023/05/09 11:25:07;;;;;;;2.55;1.77;;;;;;;15.10;88.92;93312.97;5054114;28;20044;-76
2023/05/09 11:27:41;;;;;;;2.05;1.00;;;;;;;15.00;90.01;93309.44;5063451;28;20984;-78
2023/05/09 11:30:09;;;;;;;2.90;1.83;;;;;;;15.02;90.24;93305.59;5067150;28;20135;-75
2023/05/09 11:32:43;;;;;;;2.83;1.40;;;;;;;14.93;91.39;93310.38;5067416;28;20418;-76
2023/05/09 11:35:13;;;;;;;2.13;1.40;;;;;;;14.85;90.67;93305.56;5042230;28;20469;-77